sensor_id;sensor_type;location;lat;lon;timestamp;pressure;altitude;pressure_sealevel;temperature;humidity
12360;BME280;6244;51.460;7.090;2023-02-12T00:01:38;102827.81;;;9.03;72.60
12360;BME280;6244;51.460;7.090;2023-02-12T00:06:37;102826.94;;;9.03;72.38
12360;BME280;6244;51.460;7.090;2023-02-12T00:11:34;102820.84;;;9.01;72.37
12360;BME280;6244;51.460;7.090;2023-02-12T00:16:30;102819.97;;;9.00;72.42
12360;BME280;6244;51.460;7.090;2023-02-12T00:21:28;102821.75;;;9.00;72.74
12360;BME280;6244;51.460;7.090;2023-02-12T00:26:25;102813.03;;;8.98;72.64
12360;BME280;6244;51.460;7.090;2023-02-12T00:31:24;102819.16;;;8.97;72.68
12360;BME280;6244;51.460;7.090;2023-02-12T00:36:22;102822.66;;;8.96;72.54
12360;BME280;6244;51.460;7.090;2023-02-12T00:41:21;102816.56;;;8.95;72.50
12360;BME280;6244;51.460;7.090;2023-02-12T00:46:18;102817.44;;;8.94;72.46
12360;BME280;6244;51.460;7.090;2023-02-12T00:51:14;102823.56;;;8.93;72.88
12360;BME280;6244;51.460;7.090;2023-02-12T00:56:11;102833.13;;;8.93;72.90
12360;BME280;6244;51.460;7.090;2023-02-12T01:01:09;102817.44;;;8.93;72.48
12360;BME280;6244;51.460;7.090;2023-02-12T01:06:06;102825.31;;;8.91;72.59
12360;BME280;6244;51.460;7.090;2023-02-12T01:11:04;102825.31;;;8.91;72.54
12360;BME280;6244;51.460;7.090;2023-02-12T01:16:02;102811.38;;;8.88;72.63
12360;BME280;6244;51.460;7.090;2023-02-12T01:21:07;102813.13;;;8.87;72.70
12360;BME280;6244;51.460;7.090;2023-02-12T01:26:04;102817.50;;;8.87;72.45
12360;BME280;6244;51.460;7.090;2023-02-12T01:31:09;102813.16;;;8.86;72.53
12360;BME280;6244;51.460;7.090;2023-02-12T01:36:08;102809.66;;;8.85;72.66
12360;BME280;6244;51.460;7.090;2023-02-12T01:41:07;102810.56;;;8.84;72.66
12360;BME280;6244;51.460;7.090;2023-02-12T01:46:06;102799.22;;;8.82;73.02
12360;BME280;6244;51.460;7.090;2023-02-12T01:51:03;102799.22;;;8.82;72.95
12360;BME280;6244;51.460;7.090;2023-02-12T01:56:02;102806.19;;;8.80;72.65
12360;BME280;6244;51.460;7.090;2023-02-12T02:00:59;102803.59;;;8.78;72.71
12360;BME280;6244;51.460;7.090;2023-02-12T02:05:59;102809.72;;;8.77;72.93
12360;BME280;6244;51.460;7.090;2023-02-12T02:10:57;102793.16;;;8.77;73.15
12360;BME280;6244;51.460;7.090;2023-02-12T02:15:57;102795.78;;;8.75;73.15
12360;BME280;6244;51.460;7.090;2023-02-12T02:21:18;102790.59;;;8.72;73.00
12360;BME280;6244;51.460;7.090;2023-02-12T02:26:44;102792.34;;;8.70;73.23
12360;BME280;6244;51.460;7.090;2023-02-12T02:31:52;102790.59;;;8.71;72.78
12360;BME280;6244;51.460;7.090;2023-02-12T02:36:57;102781.00;;;8.71;73.25
12360;BME280;6244;51.460;7.090;2023-02-12T02:42:00;102775.78;;;8.70;73.32
12360;BME280;6244;51.460;7.090;2023-02-12T02:47:02;102786.25;;;8.70;73.04
12360;BME280;6244;51.460;7.090;2023-02-12T02:52:03;102782.75;;;8.68;73.30
12360;BME280;6244;51.460;7.090;2023-02-12T02:57:05;102779.28;;;8.67;73.10
12360;BME280;6244;51.460;7.090;2023-02-12T03:02:08;102780.16;;;8.66;73.46
12360;BME280;6244;51.460;7.090;2023-02-12T03:07:10;102777.53;;;8.66;73.35
12360;BME280;6244;51.460;7.090;2023-02-12T03:12:12;102784.53;;;8.66;73.28
12360;BME280;6244;51.460;7.090;2023-02-12T03:17:14;102777.56;;;8.63;73.33
12360;BME280;6244;51.460;7.090;2023-02-12T03:22:13;102780.19;;;8.63;73.10
12360;BME280;6244;51.460;7.090;2023-02-12T03:27:16;102775.88;;;8.61;73.16
12360;BME280;6244;51.460;7.090;2023-02-12T03:32:23;102782.00;;;8.58;73.41
12360;BME280;6244;51.460;7.090;2023-02-12T03:37:26;102775.00;;;8.59;73.32
12360;BME280;6244;51.460;7.090;2023-02-12T03:42:33;102783.75;;;8.58;73.59
12360;BME280;6244;51.460;7.090;2023-02-12T03:47:40;102774.16;;;8.55;73.33
12360;BME280;6244;51.460;7.090;2023-02-12T03:52:40;102784.63;;;8.55;73.34
12360;BME280;6244;51.460;7.090;2023-02-12T03:57:40;102791.63;;;8.56;73.46
12360;BME280;6244;51.460;7.090;2023-02-12T04:02:39;102788.97;;;8.54;73.27
12360;BME280;6244;51.460;7.090;2023-02-12T04:07:36;102786.38;;;8.53;73.32
12360;BME280;6244;51.460;7.090;2023-02-12T04:12:39;102796.88;;;8.51;73.69
12360;BME280;6244;51.460;7.090;2023-02-12T04:17:38;102796.97;;;8.39;73.64
12360;BME280;6244;51.460;7.090;2023-02-12T04:22:44;102801.34;;;8.37;73.64
12360;BME280;6244;51.460;7.090;2023-02-12T04:27:46;102815.22;;;8.47;73.46
12360;BME280;6244;51.460;7.090;2023-02-12T04:32:47;102809.97;;;8.48;73.89
12360;BME280;6244;51.460;7.090;2023-02-12T04:37:50;102823.94;;;8.47;73.82
12360;BME280;6244;51.460;7.090;2023-02-12T04:42:51;102821.31;;;8.47;73.75
12360;BME280;6244;51.460;7.090;2023-02-12T04:47:48;102833.53;;;8.47;73.62
12360;BME280;6244;51.460;7.090;2023-02-12T04:52:45;102833.53;;;8.47;73.83
12360;BME280;6244;51.460;7.090;2023-02-12T04:57:43;102834.41;;;8.47;73.67
12360;BME280;6244;51.460;7.090;2023-02-12T05:02:40;102829.19;;;8.46;73.57
12360;BME280;6244;51.460;7.090;2023-02-12T05:07:36;102833.56;;;8.45;73.47
12360;BME280;6244;51.460;7.090;2023-02-12T05:12:33;102830.94;;;8.45;73.95
12360;BME280;6244;51.460;7.090;2023-02-12T05:17:31;102830.06;;;8.45;73.54
12360;BME280;6244;51.460;7.090;2023-02-12T05:22:27;102833.56;;;8.44;73.55
12360;BME280;6244;51.460;7.090;2023-02-12T05:27:24;102844.91;;;8.44;73.90
12360;BME280;6244;51.460;7.090;2023-02-12T05:32:20;102837.94;;;8.40;73.82
12360;BME280;6244;51.460;7.090;2023-02-12T05:37:18;102845.78;;;8.42;73.79
12360;BME280;6244;51.460;7.090;2023-02-12T05:42:15;102840.56;;;8.40;73.92
12360;BME280;6244;51.460;7.090;2023-02-12T05:47:11;102853.63;;;8.42;73.57
12360;BME280;6244;51.460;7.090;2023-02-12T05:52:08;102842.28;;;8.41;73.84
12360;BME280;6244;51.460;7.090;2023-02-12T05:57:06;102852.75;;;8.40;73.98
12360;BME280;6244;51.460;7.090;2023-02-12T06:02:03;102851.91;;;8.39;73.87
12360;BME280;6244;51.460;7.090;2023-02-12T06:06:59;102849.28;;;8.39;73.45
12360;BME280;6244;51.460;7.090;2023-02-12T06:11:56;102853.66;;;8.37;73.78
12360;BME280;6244;51.460;7.090;2023-02-12T06:16:54;102846.69;;;8.36;73.75
12360;BME280;6244;51.460;7.090;2023-02-12T06:21:50;102850.19;;;8.35;73.83
12360;BME280;6244;51.460;7.090;2023-02-12T06:26:48;102849.31;;;8.36;73.62
12360;BME280;6244;51.460;7.090;2023-02-12T06:31:45;102853.69;;;8.33;73.75
12360;BME280;6244;51.460;7.090;2023-02-12T06:36:45;102848.47;;;8.34;73.53
12360;BME280;6244;51.460;7.090;2023-02-12T06:41:42;102858.03;;;8.35;73.69
12360;BME280;6244;51.460;7.090;2023-02-12T06:46:39;102859.78;;;8.33;73.83
12360;BME280;6244;51.460;7.090;2023-02-12T06:51:35;102860.66;;;8.32;73.86
12360;BME280;6244;51.460;7.090;2023-02-12T06:56:35;102859.78;;;8.32;73.65
12360;BME280;6244;51.460;7.090;2023-02-12T07:01:32;102870.22;;;8.30;73.99
12360;BME280;6244;51.460;7.090;2023-02-12T07:06:34;102879.81;;;8.30;73.74
12360;BME280;6244;51.460;7.090;2023-02-12T07:11:33;102877.22;;;8.30;73.76
12360;BME280;6244;51.460;7.090;2023-02-12T07:16:31;102866.75;;;8.30;74.01
12360;BME280;6244;51.460;7.090;2023-02-12T07:21:28;102877.22;;;8.30;74.07
12360;BME280;6244;51.460;7.090;2023-02-12T07:26:25;102892.03;;;8.31;73.98
12360;BME280;6244;51.460;7.090;2023-02-12T07:31:22;102892.03;;;8.29;73.76
12360;BME280;6244;51.460;7.090;2023-02-12T07:36:21;102890.31;;;8.28;73.89
12360;BME280;6244;51.460;7.090;2023-02-12T07:41:19;102891.16;;;8.29;73.75
12360;BME280;6244;51.460;7.090;2023-02-12T07:46:17;102901.63;;;8.29;73.89
12360;BME280;6244;51.460;7.090;2023-02-12T07:51:15;102892.94;;;8.27;73.93
12360;BME280;6244;51.460;7.090;2023-02-12T07:56:16;102913.84;;;8.28;73.58
12360;BME280;6244;51.460;7.090;2023-02-12T08:01:15;102907.75;;;8.28;74.13
12360;BME280;6244;51.460;7.090;2023-02-12T08:06:13;102909.47;;;8.29;73.99
12360;BME280;6244;51.460;7.090;2023-02-12T08:11:12;102917.31;;;8.29;74.12
12360;BME280;6244;51.460;7.090;2023-02-12T08:16:12;102925.16;;;8.29;73.60
12360;BME280;6244;51.460;7.090;2023-02-12T08:21:10;102922.56;;;8.29;73.64
12360;BME280;6244;51.460;7.090;2023-02-12T08:26:08;102927.78;;;8.29;73.65
12360;BME280;6244;51.460;7.090;2023-02-12T08:31:08;102926.03;;;8.29;73.76
12360;BME280;6244;51.460;7.090;2023-02-12T08:36:08;102940.00;;;8.30;73.90
12360;BME280;6244;51.460;7.090;2023-02-12T08:41:07;102931.25;;;8.31;73.58
12360;BME280;6244;51.460;7.090;2023-02-12T08:46:05;102938.25;;;8.30;73.72
12360;BME280;6244;51.460;7.090;2023-02-12T08:51:04;102939.13;;;8.32;73.60
12360;BME280;6244;51.460;7.090;2023-02-12T08:56:03;102938.25;;;8.32;73.83
12360;BME280;6244;51.460;7.090;2023-02-12T09:01:00;102945.22;;;8.33;73.99
12360;BME280;6244;51.460;7.090;2023-02-12T09:05:56;102951.34;;;8.35;73.90
12360;BME280;6244;51.460;7.090;2023-02-12T09:10:53;102949.59;;;8.37;73.65
12360;BME280;6244;51.460;7.090;2023-02-12T09:15:51;102951.31;;;8.38;73.75
12360;BME280;6244;51.460;7.090;2023-02-12T09:20:47;102959.16;;;8.38;73.52
12360;BME280;6244;51.460;7.090;2023-02-12T09:25:45;102961.78;;;8.39;73.56
12360;BME280;6244;51.460;7.090;2023-02-12T09:30:42;102959.16;;;8.39;73.67
12360;BME280;6244;51.460;7.090;2023-02-12T09:35:40;102960.91;;;8.40;73.38
12360;BME280;6244;51.460;7.090;2023-02-12T09:40:43;102967.00;;;8.39;73.46
12360;BME280;6244;51.460;7.090;2023-02-12T09:45:45;102957.38;;;8.43;73.71
12360;BME280;6244;51.460;7.090;2023-02-12T09:50:47;102966.13;;;8.45;73.48
12360;BME280;6244;51.460;7.090;2023-02-12T09:55:47;102966.13;;;8.45;73.22
12360;BME280;6244;51.460;7.090;2023-02-12T10:00:44;102966.09;;;8.48;73.08
12360;BME280;6244;51.460;7.090;2023-02-12T10:05:43;102970.44;;;8.50;72.85
12360;BME280;6244;51.460;7.090;2023-02-12T10:10:49;102972.19;;;8.51;73.00
12360;BME280;6244;51.460;7.090;2023-02-12T10:15:49;102965.19;;;8.53;72.57
12360;BME280;6244;51.460;7.090;2023-02-12T10:20:54;102972.16;;;8.54;72.90
12360;BME280;6244;51.460;7.090;2023-02-12T10:25:57;102967.78;;;8.58;72.54
12360;BME280;6244;51.460;7.090;2023-02-12T10:30:56;102959.03;;;8.62;72.52
12360;BME280;6244;51.460;7.090;2023-02-12T10:36:01;102961.63;;;8.64;72.23
12360;BME280;6244;51.460;7.090;2023-02-12T10:40:59;102965.13;;;8.66;71.93
12360;BME280;6244;51.460;7.090;2023-02-12T10:45:57;102969.47;;;8.71;72.05
12360;BME280;6244;51.460;7.090;2023-02-12T10:51:09;102952.88;;;8.71;71.89
12360;BME280;6244;51.460;7.090;2023-02-12T10:56:16;102953.72;;;8.76;71.47
12360;BME280;6244;51.460;7.090;2023-02-12T11:01:16;102948.44;;;8.80;71.42
12360;BME280;6244;51.460;7.090;2023-02-12T11:06:14;102951.06;;;8.82;70.98
12360;BME280;6244;51.460;7.090;2023-02-12T11:11:15;102942.31;;;8.86;71.08
12360;BME280;6244;51.460;7.090;2023-02-12T11:16:26;102946.66;;;8.87;70.61
12360;BME280;6244;51.460;7.090;2023-02-12T11:21:23;102941.38;;;8.92;70.51
12360;BME280;6244;51.460;7.090;2023-02-12T11:26:25;102932.63;;;8.93;70.74
12360;BME280;6244;51.460;7.090;2023-02-12T11:31:24;102927.41;;;8.96;70.64
12360;BME280;6244;51.460;7.090;2023-02-12T11:36:22;102931.72;;;8.98;70.86
12360;BME280;6244;51.460;7.090;2023-02-12T11:41:23;102931.72;;;9.00;70.62
12360;BME280;6244;51.460;7.090;2023-02-12T11:46:24;102929.06;;;9.03;70.52
12360;BME280;6244;51.460;7.090;2023-02-12T11:51:25;102924.69;;;9.03;70.54
12360;BME280;6244;51.460;7.090;2023-02-12T11:56:39;102925.56;;;9.02;70.49
12360;BME280;6244;51.460;7.090;2023-02-12T12:01:37;102918.56;;;9.07;70.26
12360;BME280;6244;51.460;7.090;2023-02-12T12:06:39;102922.91;;;9.10;70.13
12360;BME280;6244;51.460;7.090;2023-02-12T12:11:56;102912.44;;;9.10;70.33
12360;BME280;6244;51.460;7.090;2023-02-12T12:16:58;102903.66;;;9.14;70.01
12360;BME280;6244;51.460;7.090;2023-02-12T12:22:22;102895.78;;;9.14;70.35
12360;BME280;6244;51.460;7.090;2023-02-12T12:27:26;102893.16;;;9.16;70.04
12360;BME280;6244;51.460;7.090;2023-02-12T12:32:46;102887.06;;;9.18;70.21
12360;BME280;6244;51.460;7.090;2023-02-12T12:37:47;102880.91;;;9.21;70.03
12360;BME280;6244;51.460;7.090;2023-02-12T12:42:57;102882.63;;;9.22;69.75
12360;BME280;6244;51.460;7.090;2023-02-12T12:48:07;102877.38;;;9.25;69.70
12360;BME280;6244;51.460;7.090;2023-02-12T12:53:21;102870.38;;;9.24;69.63
12360;BME280;6244;51.460;7.090;2023-02-12T12:58:32;102862.50;;;9.25;69.58
12360;BME280;6244;51.460;7.090;2023-02-12T13:03:43;102865.09;;;9.27;69.76
12360;BME280;6244;51.460;7.090;2023-02-12T13:09:13;102847.63;;;9.27;69.50
12360;BME280;6244;51.460;7.090;2023-02-12T13:14:26;102847.63;;;9.29;69.50
12360;BME280;6244;51.460;7.090;2023-02-12T13:19:35;102845.00;;;9.32;69.66
12360;BME280;6244;51.460;7.090;2023-02-12T13:24:37;102837.09;;;9.33;69.30
12360;BME280;6244;51.460;7.090;2023-02-12T13:29:41;102837.97;;;9.35;69.26
12360;BME280;6244;51.460;7.090;2023-02-12T13:34:42;102816.97;;;9.37;69.62
12360;BME280;6244;51.460;7.090;2023-02-12T13:39:40;102831.81;;;9.38;69.44
12360;BME280;6244;51.460;7.090;2023-02-12T13:44:43;102830.06;;;9.38;69.08
12360;BME280;6244;51.460;7.090;2023-02-12T13:49:49;102830.94;;;9.37;68.85
12360;BME280;6244;51.460;7.090;2023-02-12T13:54:57;102823.94;;;9.39;68.99
12360;BME280;6244;51.460;7.090;2023-02-12T13:59:57;102818.66;;;9.41;68.72
12360;BME280;6244;51.460;7.090;2023-02-12T14:04:55;102823.00;;;9.42;68.77
12360;BME280;6244;51.460;7.090;2023-02-12T14:10:02;102830.91;;;9.40;68.85
12360;BME280;6244;51.460;7.090;2023-02-12T14:15:05;102831.78;;;9.43;68.71
12360;BME280;6244;51.460;7.090;2023-02-12T14:20:08;102824.78;;;9.43;68.64
12360;BME280;6244;51.460;7.090;2023-02-12T14:25:40;102832.63;;;9.41;68.68
12360;BME280;6244;51.460;7.090;2023-02-12T14:30:39;102843.09;;;9.45;68.67
12360;BME280;6244;51.460;7.090;2023-02-12T14:35:37;102834.34;;;9.46;68.22
12360;BME280;6244;51.460;7.090;2023-02-12T14:40:41;102828.25;;;9.44;68.46
12360;BME280;6244;51.460;7.090;2023-02-12T14:45:39;102829.97;;;9.46;68.17
12360;BME280;6244;51.460;7.090;2023-02-12T14:50:39;102829.97;;;9.46;68.24
12360;BME280;6244;51.460;7.090;2023-02-12T14:55:45;102818.59;;;9.47;68.07
12360;BME280;6244;51.460;7.090;2023-02-12T15:00:45;102823.00;;;9.45;68.13
12360;BME280;6244;51.460;7.090;2023-02-12T15:05:46;102817.78;;;9.44;67.78
12360;BME280;6244;51.460;7.090;2023-02-12T15:10:48;102818.63;;;9.46;68.02
12360;BME280;6244;51.460;7.090;2023-02-12T15:15:50;102823.91;;;9.43;68.10
12360;BME280;6244;51.460;7.090;2023-02-12T15:20:50;102816.03;;;9.44;68.14
12360;BME280;6244;51.460;7.090;2023-02-12T15:25:50;102808.16;;;9.44;68.00
12360;BME280;6244;51.460;7.090;2023-02-12T15:30:56;102809.91;;;9.42;68.05
12360;BME280;6244;51.460;7.090;2023-02-12T15:35:52;102797.72;;;9.43;68.07
12360;BME280;6244;51.460;7.090;2023-02-12T15:40:54;102795.94;;;9.41;67.89
12360;BME280;6244;51.460;7.090;2023-02-12T15:45:52;102795.09;;;9.43;68.33
12360;BME280;6244;51.460;7.090;2023-02-12T15:50:53;102792.47;;;9.43;68.16
12360;BME280;6244;51.460;7.090;2023-02-12T15:55:50;102790.69;;;9.41;67.98
12360;BME280;6244;51.460;7.090;2023-02-12T16:00:47;102788.94;;;9.42;68.27
12360;BME280;6244;51.460;7.090;2023-02-12T16:05:46;102788.94;;;9.42;68.07
12360;BME280;6244;51.460;7.090;2023-02-12T16:10:44;102784.59;;;9.41;68.18
12360;BME280;6244;51.460;7.090;2023-02-12T16:15:43;102782.88;;;9.38;68.27
12360;BME280;6244;51.460;7.090;2023-02-12T16:20:40;102788.09;;;9.40;68.17
12360;BME280;6244;51.460;7.090;2023-02-12T16:25:41;102788.09;;;9.40;68.05
12360;BME280;6244;51.460;7.090;2023-02-12T16:30:41;102785.47;;;9.40;68.45
12360;BME280;6244;51.460;7.090;2023-02-12T16:35:38;102789.84;;;9.39;68.19
12360;BME280;6244;51.460;7.090;2023-02-12T16:40:35;102789.84;;;9.39;68.23
12360;BME280;6244;51.460;7.090;2023-02-12T16:45:38;102791.63;;;9.39;68.52
12360;BME280;6244;51.460;7.090;2023-02-12T16:50:41;102789.00;;;9.39;68.47
12360;BME280;6244;51.460;7.090;2023-02-12T16:55:38;102786.41;;;9.37;68.43
12360;BME280;6244;51.460;7.090;2023-02-12T17:00:36;102795.13;;;9.38;68.71
12360;BME280;6244;51.460;7.090;2023-02-12T17:05:33;102804.75;;;9.37;68.51
12360;BME280;6244;51.460;7.090;2023-02-12T17:10:29;102810.88;;;9.36;68.63
12360;BME280;6244;51.460;7.090;2023-02-12T17:15:29;102811.72;;;9.37;68.59
12360;BME280;6244;51.460;7.090;2023-02-12T17:20:27;102809.13;;;9.37;68.54
12360;BME280;6244;51.460;7.090;2023-02-12T17:25:24;102811.75;;;9.35;68.71
12360;BME280;6244;51.460;7.090;2023-02-12T17:30:20;102820.50;;;9.34;68.96
12360;BME280;6244;51.460;7.090;2023-02-12T17:35:18;102819.63;;;9.35;68.63
12360;BME280;6244;51.460;7.090;2023-02-12T17:40:16;102824.00;;;9.33;68.69
12360;BME280;6244;51.460;7.090;2023-02-12T17:45:13;102816.16;;;9.33;69.00
12360;BME280;6244;51.460;7.090;2023-02-12T17:50:11;102819.66;;;9.32;68.81
12360;BME280;6244;51.460;7.090;2023-02-12T17:55:08;102815.28;;;9.33;68.79
12360;BME280;6244;51.460;7.090;2023-02-12T18:00:09;102825.78;;;9.30;68.88
12360;BME280;6244;51.460;7.090;2023-02-12T18:05:06;102825.78;;;9.30;68.95
12360;BME280;6244;51.460;7.090;2023-02-12T18:10:04;102822.31;;;9.28;68.98
12360;BME280;6244;51.460;7.090;2023-02-12T18:15:02;102824.94;;;9.28;69.12
12360;BME280;6244;51.460;7.090;2023-02-12T18:20:00;102824.94;;;9.26;69.13
12360;BME280;6244;51.460;7.090;2023-02-12T18:24:57;102827.56;;;9.26;69.33
12360;BME280;6244;51.460;7.090;2023-02-12T18:29:54;102816.22;;;9.26;69.31
12360;BME280;6244;51.460;7.090;2023-02-12T18:34:51;102822.31;;;9.26;69.44
12360;BME280;6244;51.460;7.090;2023-02-12T18:39:49;102827.56;;;9.26;69.45
12360;BME280;6244;51.460;7.090;2023-02-12T18:44:46;102831.06;;;9.25;69.24
12360;BME280;6244;51.460;7.090;2023-02-12T18:49:43;102825.84;;;9.24;69.63
12360;BME280;6244;51.460;7.090;2023-02-12T18:54:40;102830.22;;;9.25;69.19
12360;BME280;6244;51.460;7.090;2023-02-12T18:59:40;102824.13;;;9.23;69.47
12360;BME280;6244;51.460;7.090;2023-02-12T19:04:36;102825.00;;;9.22;69.35
12360;BME280;6244;51.460;7.090;2023-02-12T19:09:33;102818.91;;;9.21;69.56
12360;BME280;6244;51.460;7.090;2023-02-12T19:14:30;102822.41;;;9.20;69.22
12360;BME280;6244;51.460;7.090;2023-02-12T19:19:28;102824.16;;;9.21;69.42
12360;BME280;6244;51.460;7.090;2023-02-12T19:24:24;102820.69;;;9.19;69.67
12360;BME280;6244;51.460;7.090;2023-02-12T19:29:21;102812.81;;;9.18;69.46
12360;BME280;6244;51.460;7.090;2023-02-12T19:34:20;102819.81;;;9.19;69.51
12360;BME280;6244;51.460;7.090;2023-02-12T19:39:21;102815.44;;;9.16;69.54
12360;BME280;6244;51.460;7.090;2023-02-12T19:44:21;102814.59;;;9.16;69.81
12360;BME280;6244;51.460;7.090;2023-02-12T19:49:19;102805.00;;;9.15;69.59
12360;BME280;6244;51.460;7.090;2023-02-12T19:54:17;102801.50;;;9.14;69.51
12360;BME280;6244;51.460;7.090;2023-02-12T19:59:18;102802.38;;;9.13;69.45
12360;BME280;6244;51.460;7.090;2023-02-12T20:04:16;102795.41;;;9.12;69.70
12360;BME280;6244;51.460;7.090;2023-02-12T20:09:13;102805.91;;;9.12;70.07
12360;BME280;6244;51.460;7.090;2023-02-12T20:14:11;102812.03;;;9.11;69.71
12360;BME280;6244;51.460;7.090;2023-02-12T20:19:12;102822.50;;;9.11;70.00
12360;BME280;6244;51.460;7.090;2023-02-12T20:24:09;102813.78;;;9.09;69.95
12360;BME280;6244;51.460;7.090;2023-02-12T20:29:06;102811.19;;;9.09;69.99
12360;BME280;6244;51.460;7.090;2023-02-12T20:34:04;102812.03;;;9.09;70.05
12360;BME280;6244;51.460;7.090;2023-02-12T20:39:03;102812.06;;;9.08;69.67
12360;BME280;6244;51.460;7.090;2023-02-12T20:44:00;102809.44;;;9.09;69.68
12360;BME280;6244;51.460;7.090;2023-02-12T20:48:57;102803.31;;;9.09;69.84
12360;BME280;6244;51.460;7.090;2023-02-12T20:53:54;102802.44;;;9.08;69.57
12360;BME280;6244;51.460;7.090;2023-02-12T20:58:52;102801.59;;;9.08;69.71
12360;BME280;6244;51.460;7.090;2023-02-12T21:03:51;102803.34;;;9.06;69.64
12360;BME280;6244;51.460;7.090;2023-02-12T21:08:48;102807.72;;;9.07;69.96
12360;BME280;6244;51.460;7.090;2023-02-12T21:13:47;102807.72;;;9.07;69.86
12360;BME280;6244;51.460;7.090;2023-02-12T21:18:46;102808.59;;;9.06;70.08
12360;BME280;6244;51.460;7.090;2023-02-12T21:23:43;102803.34;;;9.06;70.04
12360;BME280;6244;51.460;7.090;2023-02-12T21:28:40;102802.50;;;9.05;70.26
12360;BME280;6244;51.460;7.090;2023-02-12T21:33:38;102803.34;;;9.06;70.06
12360;BME280;6244;51.460;7.090;2023-02-12T21:38:38;102798.09;;;9.04;69.79
12360;BME280;6244;51.460;7.090;2023-02-12T21:43:35;102809.44;;;9.05;69.80
12360;BME280;6244;51.460;7.090;2023-02-12T21:48:31;102807.72;;;9.04;69.96
12360;BME280;6244;51.460;7.090;2023-02-12T21:53:28;102805.97;;;9.03;70.02
12360;BME280;6244;51.460;7.090;2023-02-12T21:58:27;102807.72;;;9.02;70.48
12360;BME280;6244;51.460;7.090;2023-02-12T22:03:24;102805.13;;;9.01;70.29
12360;BME280;6244;51.460;7.090;2023-02-12T22:08:22;102807.72;;;9.02;70.25
12360;BME280;6244;51.460;7.090;2023-02-12T22:13:19;102799.88;;;9.02;70.27
12360;BME280;6244;51.460;7.090;2023-02-12T22:18:17;102808.63;;;9.01;70.04
12360;BME280;6244;51.460;7.090;2023-02-12T22:23:13;102806.03;;;9.00;70.40
12360;BME280;6244;51.460;7.090;2023-02-12T22:28:10;102799.91;;;8.99;70.29
12360;BME280;6244;51.460;7.090;2023-02-12T22:33:06;102799.91;;;8.99;70.04
12360;BME280;6244;51.460;7.090;2023-02-12T22:38:04;102790.34;;;8.97;70.45
12360;BME280;6244;51.460;7.090;2023-02-12T22:43:01;102796.47;;;8.96;70.11
12360;BME280;6244;51.460;7.090;2023-02-12T22:47:57;102792.97;;;8.97;70.55
12360;BME280;6244;51.460;7.090;2023-02-12T22:52:53;102794.75;;;8.95;70.20
12360;BME280;6244;51.460;7.090;2023-02-12T22:57:51;102792.13;;;8.93;70.32
12360;BME280;6244;51.460;7.090;2023-02-12T23:02:48;102798.25;;;8.94;70.74
12360;BME280;6244;51.460;7.090;2023-02-12T23:07:44;102796.47;;;8.93;70.31
12360;BME280;6244;51.460;7.090;2023-02-12T23:12:41;102797.38;;;8.92;70.39
12360;BME280;6244;51.460;7.090;2023-02-12T23:17:39;102794.75;;;8.92;70.72
12360;BME280;6244;51.460;7.090;2023-02-12T23:22:35;102797.38;;;8.92;70.43
12360;BME280;6244;51.460;7.090;2023-02-12T23:27:32;102790.41;;;8.89;70.84
12360;BME280;6244;51.460;7.090;2023-02-12T23:32:28;102800.88;;;8.91;70.73
12360;BME280;6244;51.460;7.090;2023-02-12T23:37:26;102793.00;;;8.91;70.59
12360;BME280;6244;51.460;7.090;2023-02-12T23:42:23;102793.00;;;8.91;70.52
12360;BME280;6244;51.460;7.090;2023-02-12T23:47:19;102791.28;;;8.90;70.81
12360;BME280;6244;51.460;7.090;2023-02-12T23:52:16;102780.81;;;8.90;70.56
12360;BME280;6244;51.460;7.090;2023-02-12T23:57:13;102778.19;;;8.90;70.70
